Monday, February 18, 2019, 5:25 AM EST
Back to Local

KVSF, Hartness State Airport

Location: Perkinsville, VT, United States Lat: 43.35
Local Time: 5:25 AM EST (10:25 GMT) Lon: -72.517
Time Zone: US/Eastern Elev: 577 ft

Show me the last for .
Show Decoded

2019-02-18 04:54 METAR KVSF 180954Z AUTO 00000KT 8SM OVC026 M07/M10 A2990 RMK AO2 SNB33E53 SLP135
                 P0000 T10671100 =
2019-02-18 04:13 METAR KVSF 180913Z AUTO 05003KT 10SM BKN028 OVC050 M07/M10 A2992 RMK AO2
                 T10671100 =
2019-02-18 03:54 METAR KVSF 180854Z AUTO 05003KT 10SM FEW028 OVC055 M07/M10 A2991 RMK AO2 SNE18
                 SLP138 P0000 60000 T10671100 58019 =
2019-02-18 03:01 METAR KVSF 180801Z AUTO 06003KT 4SM -SN BR BKN035 OVC055 M07/M09 A2994 RMK AO2
                 P0000 T10671089 =
2019-02-18 02:54 METAR KVSF 180754Z AUTO 07003KT 4SM -SN BR BKN029 OVC060 M07/M09 A2995 RMK AO2
                 SLP151 P0000 T10671089 =
2019-02-18 02:31 METAR KVSF 180731Z AUTO 07003KT 4SM -SN BKN030 BKN050 OVC065 M07/M09 A2995 RMK
                 AO2 P0000 T10671094 =
2019-02-18 02:18 METAR KVSF 180718Z AUTO 00000KT 2SM -SN OVC032 M06/M10 A2995 RMK AO2 P0000
                 T10611100 =
2019-02-18 01:54 METAR KVSF 180654Z AUTO 00000KT 3SM -SN OVC036 M06/M10 A2996 RMK AO2 SNB44
                 SLP155 P0000 T10611100 =
2019-02-18 00:54 METAR KVSF 180554Z AUTO 00000KT 10SM BKN055 OVC070 M06/M11 A2997 RMK AO2 SLP157
                 T10561106 11050 21067 56016 =
2019-02-17 23:54 METAR KVSF 180454Z AUTO 00000KT 10SM OVC070 M06/M11 A2997 RMK AO2 SLP159
                 T10561111 410111156 =
2019-02-17 22:54 METAR KVSF 180354Z AUTO 00000KT 10SM OVC085 M06/M12 A2999 RMK AO2 SLP167
                 T10611117 =
2019-02-17 21:54 METAR KVSF 180254Z AUTO 00000KT 10SM OVC090 M06/M12 A3001 RMK AO2 SLP174
                 T10561117 55009 =
2019-02-17 20:54 METAR KVSF 180154Z AUTO 00000KT 10SM BKN100 OVC110 M06/M13 A3000 RMK AO2 SLP170
                 T10561128 =
2019-02-17 19:54 METAR KVSF 180054Z AUTO 00000KT 10SM SCT110 M06/M13 A3003 RMK AO2 SLP180
                 T10561128 =
2019-02-17 18:54 METAR KVSF 172354Z AUTO 00000KT 10SM CLR M06/M13 A3004 RMK AO2 SLP186 T10561128
                 11011 21061 53005 =
2019-02-17 17:54 METAR KVSF 172254Z AUTO 00000KT 10SM CLR M03/M17 A3003 RMK AO2 SLP181 T10331167
                 =
2019-02-17 16:54 METAR KVSF 172154Z AUTO 06003KT 10SM CLR M03/M16 A3003 RMK AO2 SLP181 T10281156
                 =
2019-02-17 15:54 METAR KVSF 172054Z AUTO 07005KT 10SM CLR M02/M14 A3003 RMK AO2 SLP180 T10171144
                 58014 =
2019-02-17 14:54 METAR KVSF 171954Z AUTO 16006KT 10SM CLR M02/M14 A3007 RMK AO2 SLP192 T10221139
                 =
2019-02-17 13:54 METAR KVSF 171854Z AUTO 12003KT 10SM CLR M03/M15 A3007 RMK AO2 SLP192 T10281150
                 =
2019-02-17 12:54 METAR KVSF 171754Z AUTO 14005KT 10SM CLR M03/M14 A3007 RMK AO2 SLP193 T10331139
                 11033 21156 58023 =
2019-02-17 11:54 METAR KVSF 171654Z AUTO 00000KT 10SM CLR M04/M14 A3009 RMK AO2 SLP201 T10441139
                 =
2019-02-17 10:54 METAR KVSF 171554Z AUTO 00000KT 10SM CLR M06/M14 A3013 RMK AO2 SLP214 T10561139
                 =
2019-02-17 09:54 METAR KVSF 171454Z AUTO 05006KT 10SM CLR M07/M15 A3014 RMK AO2 SLP216 T10721150
                 50010 =
2019-02-17 08:54 METAR KVSF 171354Z AUTO 36007KT 10SM CLR M08/M15 A3016 RMK AO2 SLP223 T10831150
                 =
2019-02-17 07:54 METAR KVSF 171254Z AUTO 00000KT 10SM CLR M13/M14 A3015 RMK AO2 SLP222 T11331144
                 =
2019-02-17 06:54 METAR KVSF 171154Z AUTO 00000KT 10SM CLR M15/M17 A3011 RMK AO2 SLP207 I1000
                 I6000 T11501167 11089 21156 51015 =
2019-02-17 05:54 METAR KVSF 171054Z AUTO 00000KT 10SM CLR M14/M16 A3010 RMK AO2 SLP204 I1000
                 T11441161 =

Support USWX by starting your Amazon purchase here.